Time,TemperatureF,DewpointF,PressureIn,WindDirection,WindDirectionDegrees,WindSpeedMPH,WindSpeedGustMPH,Humidity,HourlyPrecipIn,Conditions,Clouds,dailyrainin,SoftwareType,DateUTC
2013-08-26 00:03:00,60.4,55.6,30.33,NNW,338,0.0,0.0,84,0.00,,,0.00,meteohub,2013-08-26 04:03:00,
2013-08-26 00:08:00,60.4,55.6,30.33,North,0,0.0,0.0,84,0.00,,,0.00,meteohub,2013-08-26 04:08:00,
2013-08-26 00:13:00,60.3,55.0,30.33,North,0,0.0,0.0,83,0.00,,,0.00,meteohub,2013-08-26 04:13:00,
2013-08-26 00:18:00,60.1,54.9,30.33,North,0,0.0,0.0,83,0.00,,,0.00,meteohub,2013-08-26 04:18:00,
2013-08-26 00:23:00,60.1,55.2,30.33,North,0,0.0,0.0,84,0.00,,,0.00,meteohub,2013-08-26 04:23:00,
2013-08-26 00:28:00,59.9,55.0,30.33,North,0,0.0,0.0,84,0.00,,,0.00,meteohub,2013-08-26 04:28:00,
2013-08-26 00:33:00,59.9,55.0,30.33,North,0,0.0,0.0,84,0.00,,,0.00,meteohub,2013-08-26 04:33:00,
2013-08-26 00:38:00,59.9,55.0,30.33,North,0,0.0,0.0,84,0.00,,,0.00,meteohub,2013-08-26 04:38:00,
2013-08-26 00:43:00,59.9,55.4,30.33,North,0,0.0,0.0,85,0.00,,,0.00,meteohub,2013-08-26 04:43:00,
2013-08-26 00:48:00,59.7,55.2,30.33,North,0,0.0,0.0,85,0.00,,,0.00,meteohub,2013-08-26 04:48:00,
2013-08-26 00:53:00,59.7,55.2,30.33,North,0,0.0,0.0,85,0.00,,,0.00,meteohub,2013-08-26 04:53:00,
2013-08-26 00:58:00,59.7,55.6,30.33,North,0,0.0,0.0,86,0.00,,,0.00,meteohub,2013-08-26 04:58:00,
2013-08-26 01:03:00,59.7,55.6,30.33,North,0,0.0,0.0,86,0.00,,,0.00,meteohub,2013-08-26 05:03:00,
2013-08-26 01:08:00,59.7,55.6,30.33,North,0,0.0,0.0,86,0.00,,,0.00,meteohub,2013-08-26 05:08:00,
2013-08-26 01:13:00,59.7,55.6,30.33,North,0,0.0,0.0,86,0.00,,,0.00,meteohub,2013-08-26 05:13:00,
2013-08-26 01:18:00,59.7,55.6,30.33,North,0,0.0,0.0,86,0.00,,,0.00,meteohub,2013-08-26 05:18:00,
2013-08-26 01:23:00,59.5,55.4,30.33,North,0,0.0,0.0,86,0.00,,,0.00,meteohub,2013-08-26 05:23:00,
2013-08-26 01:28:00,59.4,55.2,30.33,North,0,0.0,0.0,86,0.00,,,0.00,meteohub,2013-08-26 05:28:00,
2013-08-26 01:33:00,59.4,55.2,30.33,North,0,0.0,0.0,86,0.00,,,0.00,meteohub,2013-08-26 05:33:00,
2013-08-26 01:38:00,59.2,55.4,30.33,North,0,0.0,0.0,87,0.00,,,0.00,meteohub,2013-08-26 05:38:00,
2013-08-26 01:43:00,59.2,55.4,30.33,NNE,22,0.0,0.0,87,0.00,,,0.00,meteohub,2013-08-26 05:43:00,
2013-08-26 01:48:00,59.0,55.4,30.33,NE,45,0.0,0.0,88,0.00,,,0.00,meteohub,2013-08-26 05:48:00,
2013-08-26 01:53:00,58.8,55.2,30.33,NE,45,0.0,0.0,88,0.00,,,0.00,meteohub,2013-08-26 05:53:00,
2013-08-26 01:58:00,58.6,55.0,30.33,NE,45,0.0,0.0,88,0.00,,,0.00,meteohub,2013-08-26 05:58:00,
2013-08-26 02:03:00,58.5,55.2,30.33,NE,45,0.0,0.0,89,0.00,,,0.00,meteohub,2013-08-26 06:03:00,
2013-08-26 02:08:00,58.3,55.0,30.33,NE,45,0.0,0.0,89,0.00,,,0.00,meteohub,2013-08-26 06:08:00,
2013-08-26 02:13:00,58.3,55.4,30.33,NE,45,0.0,0.0,90,0.00,,,0.00,meteohub,2013-08-26 06:13:00,
2013-08-26 02:18:00,58.1,55.2,30.33,NE,45,0.0,0.0,90,0.00,,,0.00,meteohub,2013-08-26 06:18:00,
2013-08-26 02:23:00,57.9,55.0,30.33,NE,45,0.0,0.0,90,0.00,,,0.00,meteohub,2013-08-26 06:23:00,
2013-08-26 02:28:00,57.7,55.2,30.30,NE,45,0.0,0.0,91,0.00,,,0.00,meteohub,2013-08-26 06:28:00,
2013-08-26 02:33:00,57.7,55.2,30.30,NE,45,0.0,0.0,91,0.00,,,0.00,meteohub,2013-08-26 06:33:00,
2013-08-26 02:38:00,57.6,55.0,30.30,NE,45,0.0,0.0,91,0.00,,,0.00,meteohub,2013-08-26 06:38:00,
2013-08-26 02:43:00,57.6,55.2,30.30,NE,45,0.0,0.0,92,0.00,,,0.00,meteohub,2013-08-26 06:43:00,
2013-08-26 02:48:00,57.6,55.2,30.30,NE,45,0.0,0.0,92,0.00,,,0.00,meteohub,2013-08-26 06:48:00,
2013-08-26 02:53:00,57.6,55.2,30.30,NE,45,0.0,0.0,92,0.00,,,0.00,meteohub,2013-08-26 06:53:00,
2013-08-26 02:58:00,57.7,55.8,30.30,NE,45,0.0,0.0,93,0.00,,,0.00,meteohub,2013-08-26 06:58:00,
2013-08-26 03:03:00,57.6,55.6,30.30,NE,45,0.0,0.0,93,0.00,,,0.00,meteohub,2013-08-26 07:03:00,
2013-08-26 03:08:00,57.4,55.4,30.30,NE,45,0.0,0.0,93,0.00,,,0.00,meteohub,2013-08-26 07:08:00,
2013-08-26 03:13:00,57.4,55.6,30.30,NE,45,0.0,0.0,94,0.00,,,0.00,meteohub,2013-08-26 07:13:00,
2013-08-26 03:18:00,57.2,55.4,30.30,NE,45,0.0,0.0,94,0.00,,,0.00,meteohub,2013-08-26 07:18:00,
2013-08-26 03:23:00,57.2,55.4,30.30,NE,45,0.0,0.0,94,0.00,,,0.00,meteohub,2013-08-26 07:23:00,
2013-08-26 03:28:00,57.0,55.6,30.30,NE,45,0.0,0.0,95,0.00,,,0.00,meteohub,2013-08-26 07:28:00,
2013-08-26 03:33:00,56.8,55.4,30.30,NE,45,0.0,0.0,95,0.00,,,0.00,meteohub,2013-08-26 07:33:00,
2013-08-26 03:38:00,56.8,55.4,30.30,NE,45,0.0,0.0,95,0.00,,,0.00,meteohub,2013-08-26 07:38:00,
2013-08-26 03:43:00,56.8,55.4,30.30,NE,45,0.0,0.0,95,0.00,,,0.00,meteohub,2013-08-26 07:43:00,
2013-08-26 03:48:00,56.8,55.4,30.30,NE,45,0.0,0.0,95,0.00,,,0.00,meteohub,2013-08-26 07:48:00,
2013-08-26 03:53:00,56.8,55.8,30.30,NE,45,0.0,0.0,96,0.00,,,0.00,meteohub,2013-08-26 07:53:00,
2013-08-26 03:58:00,56.8,55.8,30.30,NE,45,0.0,0.0,96,0.00,,,0.00,meteohub,2013-08-26 07:58:00,
2013-08-26 04:03:00,56.7,55.6,30.30,NE,45,0.0,0.0,96,0.00,,,0.00,meteohub,2013-08-26 08:03:00,
2013-08-26 04:08:00,56.7,55.6,30.30,NE,45,0.0,0.0,96,0.00,,,0.00,meteohub,2013-08-26 08:08:00,
2013-08-26 04:13:00,56.5,55.4,30.30,NE,45,0.0,0.0,96,0.00,,,0.00,meteohub,2013-08-26 08:13:00,
2013-08-26 04:18:00,56.5,55.4,30.30,NE,45,0.0,0.0,96,0.00,,,0.00,meteohub,2013-08-26 08:18:00,
2013-08-26 04:23:00,56.7,55.8,30.30,NE,45,0.0,0.0,97,0.00,,,0.00,meteohub,2013-08-26 08:23:00,
2013-08-26 04:28:00,56.5,55.6,30.30,NE,45,0.0,0.0,97,0.00,,,0.00,meteohub,2013-08-26 08:28:00,
2013-08-26 04:33:00,56.5,55.6,30.30,NE,45,0.0,0.0,97,0.00,,,0.00,meteohub,2013-08-26 08:33:00,
2013-08-26 04:38:00,56.3,55.4,30.30,NE,45,0.0,0.0,97,0.00,,,0.00,meteohub,2013-08-26 08:38:00,
2013-08-26 04:43:00,56.3,55.4,30.30,NE,45,0.0,0.0,97,0.00,,,0.00,meteohub,2013-08-26 08:43:00,
2013-08-26 04:48:00,56.1,55.2,30.30,NE,45,0.0,0.0,97,0.00,,,0.00,meteohub,2013-08-26 08:48:00,
2013-08-26 04:53:00,55.9,55.0,30.30,NE,45,0.0,0.0,97,0.00,,,0.00,meteohub,2013-08-26 08:53:00,
2013-08-26 04:58:00,55.9,55.4,30.27,NE,45,0.0,0.0,98,0.00,,,0.00,meteohub,2013-08-26 08:58:00,
2013-08-26 05:03:00,55.9,55.4,30.27,NE,45,0.0,0.0,98,0.00,,,0.00,meteohub,2013-08-26 09:03:00,
2013-08-26 05:08:00,55.9,55.4,30.27,NNE,22,0.0,0.0,98,0.00,,,0.00,meteohub,2013-08-26 09:08:00,
2013-08-26 05:13:00,55.9,55.4,30.30,NNE,22,0.0,0.0,98,0.00,,,0.00,meteohub,2013-08-26 09:13:00,
2013-08-26 05:18:00,55.9,55.4,30.30,NNE,22,0.0,0.0,98,0.00,,,0.00,meteohub,2013-08-26 09:18:00,
2013-08-26 05:23:00,55.8,55.2,30.30,NNE,22,0.0,0.0,98,0.00,,,0.00,meteohub,2013-08-26 09:23:00,
2013-08-26 05:28:00,55.8,55.2,30.30,NNE,22,0.0,0.0,98,0.00,,,0.00,meteohub,2013-08-26 09:28:00,
2013-08-26 05:33:00,55.6,55.0,30.30,NNE,22,0.0,0.0,98,0.00,,,0.00,meteohub,2013-08-26 09:33:00,
2013-08-26 05:38:00,55.6,55.0,30.30,NNE,22,0.0,0.0,98,0.00,,,0.00,meteohub,2013-08-26 09:38:00,
2013-08-26 05:43:00,55.6,55.0,30.30,NE,45,0.0,0.0,98,0.00,,,0.00,meteohub,2013-08-26 09:43:00,
2013-08-26 05:48:00,55.6,55.0,30.30,NE,45,0.0,0.0,98,0.00,,,0.00,meteohub,2013-08-26 09:48:00,
2013-08-26 05:53:00,55.4,54.9,30.30,NE,45,0.0,0.0,98,0.00,,,0.00,meteohub,2013-08-26 09:53:00,
2013-08-26 05:58:00,55.4,54.9,30.27,NE,45,0.0,0.0,98,0.00,,,0.00,meteohub,2013-08-26 09:58:00,
2013-08-26 06:03:00,55.4,54.9,30.27,NE,45,0.0,0.0,98,0.00,,,0.00,meteohub,2013-08-26 10:03:00,
2013-08-26 06:08:00,55.4,54.9,30.27,NE,45,0.0,0.0,98,0.00,,,0.00,meteohub,2013-08-26 10:08:00,
2013-08-26 06:13:00,55.4,54.9,30.30,NE,45,0.0,0.0,98,0.00,,,0.00,meteohub,2013-08-26 10:13:00,
2013-08-26 06:18:00,55.2,54.7,30.30,NE,45,0.0,0.0,98,0.00,,,0.00,meteohub,2013-08-26 10:18:00,
2013-08-26 06:23:00,55.2,54.7,30.30,NE,45,0.0,0.0,98,0.00,,,0.00,meteohub,2013-08-26 10:23:00,
2013-08-26 06:28:00,55.2,54.7,30.27,NE,45,0.0,0.0,98,0.00,,,0.00,meteohub,2013-08-26 10:28:00,
2013-08-26 06:33:00,55.2,54.7,30.27,NE,45,0.0,0.0,98,0.00,,,0.00,meteohub,2013-08-26 10:33:00,
2013-08-26 06:38:00,55.0,54.5,30.27,NE,45,0.0,0.0,98,0.00,,,0.00,meteohub,2013-08-26 10:38:00,
2013-08-26 06:43:00,55.0,54.5,30.27,NE,45,0.0,0.0,98,0.00,,,0.00,meteohub,2013-08-26 10:43:00,
2013-08-26 06:48:00,55.2,54.7,30.27,NE,45,0.0,0.0,98,0.00,,,0.00,meteohub,2013-08-26 10:48:00,
2013-08-26 06:53:00,55.2,54.7,30.27,NE,45,0.0,0.0,98,0.00,,,0.00,meteohub,2013-08-26 10:53:00,
2013-08-26 06:58:00,55.4,54.9,30.27,NE,45,0.0,0.0,98,0.00,,,0.00,meteohub,2013-08-26 10:58:00,
2013-08-26 07:03:00,55.8,55.2,30.27,NNE,22,0.0,0.0,98,0.00,,,0.00,meteohub,2013-08-26 11:03:00,
2013-08-26 07:08:00,55.9,55.4,30.27,NNE,22,0.0,0.0,98,0.00,,,0.00,meteohub,2013-08-26 11:08:00,
2013-08-26 07:13:00,56.3,55.8,30.30,NNE,22,0.0,0.0,98,0.00,,,0.00,meteohub,2013-08-26 11:13:00,
2013-08-26 07:18:00,56.3,55.8,30.30,NNE,22,0.0,0.0,98,0.00,,,0.00,meteohub,2013-08-26 11:18:00,
2013-08-26 07:23:00,56.5,55.9,30.30,NNE,22,0.0,0.0,98,0.00,,,0.00,meteohub,2013-08-26 11:23:00,
2013-08-26 07:28:00,56.7,56.1,30.30,NNE,22,0.0,0.0,98,0.00,,,0.00,meteohub,2013-08-26 11:28:00,
2013-08-26 07:33:00,57.0,56.5,30.30,NNE,22,0.0,0.0,98,0.00,,,0.00,meteohub,2013-08-26 11:33:00,
2013-08-26 07:38:00,57.2,56.7,30.30,NNE,22,0.0,0.0,98,0.00,,,0.00,meteohub,2013-08-26 11:38:00,
2013-08-26 07:43:00,57.4,56.8,30.30,NNE,22,0.0,0.0,98,0.00,,,0.00,meteohub,2013-08-26 11:43:00,
2013-08-26 07:48:00,57.7,57.2,30.30,NNE,22,0.0,0.0,98,0.00,,,0.00,meteohub,2013-08-26 11:48:00,
2013-08-26 07:53:00,58.1,57.6,30.30,NNE,22,0.0,0.0,98,0.00,,,0.00,meteohub,2013-08-26 11:53:00,
2013-08-26 07:58:00,58.6,58.1,30.30,NNE,22,0.0,0.0,98,0.00,,,0.00,meteohub,2013-08-26 11:58:00,
2013-08-26 08:03:00,58.8,58.3,30.30,NNE,22,0.0,0.0,98,0.00,,,0.00,meteohub,2013-08-26 12:03:00,
2013-08-26 08:08:00,59.4,58.8,30.30,NNE,22,0.0,0.0,98,0.00,,,0.00,meteohub,2013-08-26 12:08:00,
2013-08-26 08:13:00,60.4,59.9,30.30,NNE,22,0.0,0.0,98,0.00,,,0.00,meteohub,2013-08-26 12:13:00,
2013-08-26 08:18:00,60.8,60.3,30.30,NNE,22,0.0,0.0,98,0.00,,,0.00,meteohub,2013-08-26 12:18:00,
2013-08-26 08:23:00,61.3,60.8,30.30,NNE,22,0.0,0.0,98,0.00,,,0.00,meteohub,2013-08-26 12:23:00,
2013-08-26 08:28:00,61.5,61.0,30.30,NNE,22,0.0,0.0,98,0.00,,,0.00,meteohub,2013-08-26 12:28:00,
2013-08-26 08:33:00,61.9,61.3,30.30,SW,225,0.0,4.0,98,0.00,,,0.00,meteohub,2013-08-26 12:33:00,
2013-08-26 08:38:00,62.4,61.9,30.30,WSW,248,4.0,4.0,98,0.00,,,0.00,meteohub,2013-08-26 12:38:00,
2013-08-26 08:43:00,63.0,61.5,30.30,SSE,158,0.0,4.0,95,0.00,,,0.00,meteohub,2013-08-26 12:43:00,
2013-08-26 08:48:00,63.0,61.0,30.30,WSW,248,4.0,4.0,93,0.00,,,0.00,meteohub,2013-08-26 12:48:00,
2013-08-26 08:53:00,63.5,59.9,30.30,ENE,68,0.0,5.0,88,0.00,,,0.00,meteohub,2013-08-26 12:53:00,
2013-08-26 08:58:00,64.0,59.2,30.30,WSW,248,0.0,5.0,84,0.00,,,0.00,meteohub,2013-08-26 12:58:00,
2013-08-26 09:03:00,64.4,58.1,30.30,WSW,248,0.0,5.0,80,0.00,,,0.00,meteohub,2013-08-26 13:03:00,
2013-08-26 09:08:00,64.6,56.1,30.30,SW,225,0.0,4.0,74,0.00,,,0.00,meteohub,2013-08-26 13:08:00,
2013-08-26 09:13:00,65.1,55.4,30.30,WSW,248,2.0,4.0,71,0.00,,,0.00,meteohub,2013-08-26 13:13:00,
2013-08-26 09:18:00,65.5,55.4,30.30,WSW,248,4.0,5.0,70,0.00,,,0.00,meteohub,2013-08-26 13:18:00,
2013-08-26 09:23:00,65.7,55.2,30.30,ESE,112,2.0,5.0,69,0.00,,,0.00,meteohub,2013-08-26 13:23:00,
2013-08-26 09:28:00,66.2,55.4,30.30,SW,225,5.0,5.0,68,0.00,,,0.00,meteohub,2013-08-26 13:28:00,
2013-08-26 09:33:00,66.2,54.5,30.30,WSW,248,4.0,5.0,66,0.00,,,0.00,meteohub,2013-08-26 13:33:00,
2013-08-26 09:38:00,66.6,54.9,30.30,WSW,248,3.0,5.0,66,0.00,,,0.00,meteohub,2013-08-26 13:38:00,
2013-08-26 09:43:00,67.1,55.8,30.30,South,180,2.0,5.0,67,0.00,,,0.00,meteohub,2013-08-26 13:43:00,
2013-08-26 09:48:00,67.5,54.9,30.30,West,270,4.0,5.0,64,0.00,,,0.00,meteohub,2013-08-26 13:48:00,
2013-08-26 09:53:00,68.2,55.0,30.30,WSW,248,4.0,5.0,63,0.00,,,0.00,meteohub,2013-08-26 13:53:00,
2013-08-26 09:58:00,68.7,55.2,30.30,WSW,248,4.0,5.0,62,0.00,,,0.00,meteohub,2013-08-26 13:58:00,
2013-08-26 10:03:00,69.1,54.7,30.30,WSW,248,4.0,5.0,60,0.00,,,0.00,meteohub,2013-08-26 14:03:00,
2013-08-26 10:08:00,69.6,54.1,30.30,West,270,0.0,5.0,58,0.00,,,0.00,meteohub,2013-08-26 14:08:00,
2013-08-26 10:13:00,70.2,54.1,30.30,West,270,4.0,4.0,57,0.00,,,0.00,meteohub,2013-08-26 14:13:00,
2013-08-26 10:18:00,71.2,53.8,30.30,NNE,22,4.0,5.0,54,0.00,,,0.00,meteohub,2013-08-26 14:18:00,
2013-08-26 10:23:00,71.6,51.4,30.30,NE,45,0.0,6.0,49,0.00,,,0.00,meteohub,2013-08-26 14:23:00,
2013-08-26 10:28:00,71.1,51.4,30.30,SW,225,3.0,6.0,50,0.00,,,0.00,meteohub,2013-08-26 14:28:00,
2013-08-26 10:33:00,72.1,52.0,30.30,ENE,68,2.0,6.0,49,0.00,,,0.00,meteohub,2013-08-26 14:33:00,
2013-08-26 10:38:00,71.6,50.4,30.30,West,270,4.0,6.0,47,0.00,,,0.00,meteohub,2013-08-26 14:38:00,
2013-08-26 10:43:00,71.6,51.4,30.30,SW,225,3.0,6.0,49,0.00,,,0.00,meteohub,2013-08-26 14:43:00,
2013-08-26 10:48:00,71.8,51.1,30.30,SW,225,7.0,7.0,48,0.00,,,0.00,meteohub,2013-08-26 14:48:00,
2013-08-26 10:53:00,72.7,51.8,30.30,NE,45,4.0,7.0,48,0.00,,,0.00,meteohub,2013-08-26 14:53:00,
2013-08-26 10:58:00,73.0,51.1,30.30,SSW,202,5.0,7.0,46,0.00,,,0.00,meteohub,2013-08-26 14:58:00,
2013-08-26 11:03:00,73.9,51.3,30.30,NE,45,0.0,7.0,45,0.00,,,0.00,meteohub,2013-08-26 15:03:00,
2013-08-26 11:08:00,74.7,50.7,30.30,NNE,22,0.0,7.0,43,0.00,,,0.00,meteohub,2013-08-26 15:08:00,
2013-08-26 11:13:00,75.4,51.3,30.30,NNW,338,4.0,7.0,43,0.00,,,0.00,meteohub,2013-08-26 15:13:00,
2013-08-26 11:18:00,75.9,50.5,30.30,NNE,22,4.0,7.0,41,0.00,,,0.00,meteohub,2013-08-26 15:18:00,
2013-08-26 11:23:00,76.3,49.5,30.30,ENE,68,4.0,6.0,39,0.00,,,0.00,meteohub,2013-08-26 15:23:00,
2013-08-26 11:28:00,76.6,50.5,30.30,North,0,5.0,6.0,40,0.00,,,0.00,meteohub,2013-08-26 15:28:00,
2013-08-26 11:33:00,76.5,49.6,30.30,NNE,22,4.0,5.0,39,0.00,,,0.00,meteohub,2013-08-26 15:33:00,
2013-08-26 11:38:00,76.5,48.9,30.30,ENE,68,0.0,5.0,38,0.00,,,0.00,meteohub,2013-08-26 15:38:00,
2013-08-26 11:48:00,77.7,50.7,30.30,NW,315,4.0,8.0,39,0.00,,,0.00,meteohub,2013-08-26 15:48:00,
2013-08-26 11:53:00,78.1,49.6,30.30,ENE,68,3.0,7.0,37,0.00,,,0.00,meteohub,2013-08-26 15:53:00,
2013-08-26 11:58:00,77.7,47.8,30.27,South,180,0.0,7.0,35,0.00,,,0.00,meteohub,2013-08-26 15:58:00,
2013-08-26 12:03:00,78.6,48.7,30.27,NE,45,7.0,7.0,35,0.00,,,0.00,meteohub,2013-08-26 16:03:00,
2013-08-26 12:08:00,77.9,47.3,30.27,NNE,22,0.0,8.0,34,0.00,,,0.00,meteohub,2013-08-26 16:08:00,
2013-08-26 12:13:00,77.5,48.6,30.27,SE,135,5.0,8.0,36,0.00,,,0.00,meteohub,2013-08-26 16:13:00,
2013-08-26 12:18:00,78.1,46.6,30.27,SW,225,3.0,8.0,33,0.00,,,0.00,meteohub,2013-08-26 16:18:00,
2013-08-26 12:23:00,79.2,48.4,30.27,SE,135,0.0,5.0,34,0.00,,,0.00,meteohub,2013-08-26 16:23:00,
2013-08-26 12:28:00,79.3,48.6,30.27,SE,135,0.0,5.0,34,0.00,,,0.00,meteohub,2013-08-26 16:28:00,
2013-08-26 12:33:00,79.7,47.3,30.27,ESE,112,0.0,4.0,32,0.00,,,0.00,meteohub,2013-08-26 16:33:00,
2013-08-26 12:38:00,80.1,47.5,30.27,SE,135,0.0,4.0,32,0.00,,,0.00,meteohub,2013-08-26 16:38:00,
2013-08-26 12:43:00,80.6,47.1,30.27,ESE,112,4.0,5.0,31,0.00,,,0.00,meteohub,2013-08-26 16:43:00,
2013-08-26 12:48:00,80.8,46.4,30.27,NNW,338,3.0,5.0,30,0.00,,,0.00,meteohub,2013-08-26 16:48:00,
2013-08-26 12:53:00,80.8,47.3,30.27,SE,135,4.0,5.0,31,0.00,,,0.00,meteohub,2013-08-26 16:53:00,
2013-08-26 12:58:00,81.1,47.7,30.25,SE,135,4.0,5.0,31,0.00,,,0.00,meteohub,2013-08-26 16:58:00,
2013-08-26 13:03:00,80.2,46.9,30.25,West,270,0.0,5.0,31,0.00,,,0.00,meteohub,2013-08-26 17:03:00,
2013-08-26 13:08:00,81.0,47.5,30.25,SE,135,4.0,6.0,31,0.00,,,0.00,meteohub,2013-08-26 17:08:00,
2013-08-26 13:13:00,81.1,47.7,30.25,SE,135,3.0,6.0,31,0.00,,,0.00,meteohub,2013-08-26 17:13:00,
2013-08-26 13:18:00,80.6,46.2,30.25,NNE,22,4.0,6.0,30,0.00,,,0.00,meteohub,2013-08-26 17:18:00,
2013-08-26 13:23:00,81.7,47.3,30.25,NE,45,4.0,5.0,30,0.00,,,0.00,meteohub,2013-08-26 17:23:00,
2013-08-26 13:28:00,81.7,47.3,30.25,North,0,4.0,6.0,30,0.00,,,0.00,meteohub,2013-08-26 17:28:00,
2013-08-26 13:33:00,82.4,47.8,30.25,SE,135,3.0,6.0,30,0.00,,,0.00,meteohub,2013-08-26 17:33:00,
2013-08-26 13:38:00,82.9,48.4,30.25,SE,135,3.0,5.0,30,0.00,,,0.00,meteohub,2013-08-26 17:38:00,
2013-08-26 13:43:00,81.9,46.4,30.25,South,180,3.0,4.0,29,0.00,,,0.00,meteohub,2013-08-26 17:43:00,
2013-08-26 13:48:00,83.3,48.6,30.25,ESE,112,3.0,4.0,30,0.00,,,0.00,meteohub,2013-08-26 17:48:00,
2013-08-26 13:53:00,83.5,47.8,30.25,SE,135,3.0,4.0,29,0.00,,,0.00,meteohub,2013-08-26 17:53:00,
2013-08-26 13:58:00,82.9,47.5,30.25,West,270,4.0,4.0,29,0.00,,,0.00,meteohub,2013-08-26 17:58:00,
2013-08-26 14:03:00,82.9,48.4,30.25,WSW,248,2.0,5.0,30,0.00,,,0.00,meteohub,2013-08-26 18:03:00,
2013-08-26 14:08:00,83.7,48.0,30.25,SE,135,6.0,6.0,29,0.00,,,0.00,meteohub,2013-08-26 18:08:00,
2013-08-26 14:13:00,84.0,48.4,30.25,West,270,3.0,6.0,29,0.00,,,0.00,meteohub,2013-08-26 18:13:00,
2013-08-26 14:18:00,83.7,48.0,30.25,SE,135,2.0,6.0,29,0.00,,,0.00,meteohub,2013-08-26 18:18:00,
2013-08-26 14:23:00,82.8,46.4,30.25,West,270,0.0,7.0,28,0.00,,,0.00,meteohub,2013-08-26 18:23:00,
2013-08-26 14:28:00,82.6,46.2,30.22,West,270,0.0,7.0,28,0.00,,,0.00,meteohub,2013-08-26 18:28:00,
2013-08-26 14:33:00,83.1,46.6,30.22,SE,135,5.0,7.0,28,0.00,,,0.00,meteohub,2013-08-26 18:33:00,
2013-08-26 14:38:00,82.4,41.9,30.22,WSW,248,6.0,6.0,24,0.00,,,0.00,meteohub,2013-08-26 18:38:00,
2013-08-26 14:43:00,82.9,45.5,30.22,SE,135,4.0,9.0,27,0.00,,,0.00,meteohub,2013-08-26 18:43:00,
2013-08-26 14:48:00,82.9,43.5,30.22,WNW,292,4.0,9.0,25,0.00,,,0.00,meteohub,2013-08-26 18:48:00,
2013-08-26 14:53:00,83.3,43.9,30.22,WSW,248,2.0,8.0,25,0.00,,,0.00,meteohub,2013-08-26 18:53:00,
2013-08-26 14:58:00,84.0,43.3,30.22,West,270,3.0,5.0,24,0.00,,,0.00,meteohub,2013-08-26 18:58:00,
2013-08-26 15:03:00,82.4,44.1,30.22,SSE,158,0.0,6.0,26,0.00,,,0.00,meteohub,2013-08-26 19:03:00,
2013-08-26 15:08:00,84.2,43.5,30.22,SW,225,3.0,6.0,24,0.00,,,0.00,meteohub,2013-08-26 19:08:00,
2013-08-26 15:13:00,83.5,43.0,30.22,WSW,248,4.0,6.0,24,0.00,,,0.00,meteohub,2013-08-26 19:13:00,
2013-08-26 15:18:00,82.2,45.0,30.22,SSW,202,5.0,8.0,27,0.00,,,0.00,meteohub,2013-08-26 19:18:00,
2013-08-26 15:23:00,83.1,43.7,30.22,West,270,0.0,8.0,25,0.00,,,0.00,meteohub,2013-08-26 19:23:00,
2013-08-26 15:28:00,83.1,44.6,30.19,West,270,6.0,8.0,26,0.00,,,0.00,meteohub,2013-08-26 19:28:00,
2013-08-26 15:33:00,83.1,44.6,30.19,WSW,248,6.0,7.0,26,0.00,,,0.00,meteohub,2013-08-26 19:33:00,
2013-08-26 15:38:00,84.4,44.8,30.19,West,270,3.0,7.0,25,0.00,,,0.00,meteohub,2013-08-26 19:38:00,
2013-08-26 15:43:00,84.9,46.2,30.19,SE,135,3.0,7.0,26,0.00,,,0.00,meteohub,2013-08-26 19:43:00,
2013-08-26 15:48:00,86.0,43.9,30.19,WNW,292,4.0,6.0,23,0.00,,,0.00,meteohub,2013-08-26 19:48:00,
2013-08-26 15:53:00,86.0,43.9,30.19,WSW,248,4.0,5.0,23,0.00,,,0.00,meteohub,2013-08-26 19:53:00,
2013-08-26 15:58:00,85.6,43.5,30.19,SE,135,2.0,6.0,23,0.00,,,0.00,meteohub,2013-08-26 19:58:00,
2013-08-26 16:03:00,84.9,41.9,30.19,WSW,248,2.0,6.0,22,0.00,,,0.00,meteohub,2013-08-26 20:03:00,
2013-08-26 16:08:00,85.8,40.1,30.19,ESE,112,2.0,6.0,20,0.00,,,0.00,meteohub,2013-08-26 20:08:00,
2013-08-26 16:13:00,86.2,40.5,30.16,ESE,112,0.0,6.0,20,0.00,,,0.00,meteohub,2013-08-26 20:13:00,
2013-08-26 16:18:00,86.4,40.6,30.16,SSE,158,0.0,6.0,20,0.00,,,0.00,meteohub,2013-08-26 20:18:00,
2013-08-26 16:23:00,87.1,41.2,30.16,SE,135,3.0,5.0,20,0.00,,,0.00,meteohub,2013-08-26 20:23:00,
2013-08-26 16:28:00,85.3,39.7,30.16,WSW,248,4.0,5.0,20,0.00,,,0.00,meteohub,2013-08-26 20:28:00,
2013-08-26 16:33:00,84.7,40.5,30.16,West,270,3.0,6.0,21,0.00,,,0.00,meteohub,2013-08-26 20:33:00,
2013-08-26 16:38:00,84.4,40.1,30.16,WSW,248,3.0,7.0,21,0.00,,,0.00,meteohub,2013-08-26 20:38:00,
2013-08-26 16:43:00,85.1,41.9,30.16,WSW,248,3.0,7.0,22,0.00,,,0.00,meteohub,2013-08-26 20:43:00,
2013-08-26 16:48:00,85.6,42.4,30.16,SSE,158,0.0,5.0,22,0.00,,,0.00,meteohub,2013-08-26 20:48:00,
2013-08-26 16:53:00,84.4,41.4,30.16,WSW,248,5.0,7.0,22,0.00,,,0.00,meteohub,2013-08-26 20:53:00,
2013-08-26 16:58:00,84.6,41.5,30.16,West,270,3.0,7.0,22,0.00,,,0.00,meteohub,2013-08-26 20:58:00,
2013-08-26 17:03:00,84.2,41.2,30.16,West,270,4.0,7.0,22,0.00,,,0.00,meteohub,2013-08-26 21:03:00,
2013-08-26 17:08:00,85.6,42.4,30.16,NNW,338,0.0,7.0,22,0.00,,,0.00,meteohub,2013-08-26 21:08:00,
2013-08-26 17:13:00,86.2,41.7,30.16,North,0,2.0,6.0,21,0.00,,,0.00,meteohub,2013-08-26 21:13:00,
2013-08-26 17:18:00,85.3,41.0,30.16,NNW,338,3.0,5.0,21,0.00,,,0.00,meteohub,2013-08-26 21:18:00,
2013-08-26 17:23:00,85.8,42.6,30.16,North,0,0.0,5.0,22,0.00,,,0.00,meteohub,2013-08-26 21:23:00,
2013-08-26 17:28:00,86.5,41.9,30.16,WSW,248,2.0,5.0,21,0.00,,,0.00,meteohub,2013-08-26 21:28:00,
2013-08-26 17:33:00,86.5,43.2,30.16,NW,315,4.0,5.0,22,0.00,,,0.00,meteohub,2013-08-26 21:33:00,
2013-08-26 17:38:00,86.5,43.2,30.16,ENE,68,4.0,5.0,22,0.00,,,0.00,meteohub,2013-08-26 21:38:00,
2013-08-26 17:43:00,86.5,41.9,30.16,ENE,68,0.0,5.0,21,0.00,,,0.00,meteohub,2013-08-26 21:43:00,
2013-08-26 17:48:00,85.3,43.3,30.16,West,270,0.0,6.0,23,0.00,,,0.00,meteohub,2013-08-26 21:48:00,
2013-08-26 17:53:00,85.5,43.5,30.16,WSW,248,3.0,6.0,23,0.00,,,0.00,meteohub,2013-08-26 21:53:00,
2013-08-26 17:58:00,86.4,43.0,30.16,West,270,3.0,6.0,22,0.00,,,0.00,meteohub,2013-08-26 21:58:00,
2013-08-26 18:03:00,86.0,42.8,30.16,West,270,0.0,4.0,22,0.00,,,0.00,meteohub,2013-08-26 22:03:00,
2013-08-26 18:08:00,86.0,42.8,30.16,WSW,248,0.0,4.0,22,0.00,,,0.00,meteohub,2013-08-26 22:08:00,
2013-08-26 18:13:00,85.5,43.5,30.16,NNW,338,0.0,4.0,23,0.00,,,0.00,meteohub,2013-08-26 22:13:00,
2013-08-26 18:18:00,83.3,43.9,30.16,NNE,22,0.0,4.0,25,0.00,,,0.00,meteohub,2013-08-26 22:18:00,
2013-08-26 18:23:00,82.6,43.2,30.16,NNE,22,0.0,4.0,25,0.00,,,0.00,meteohub,2013-08-26 22:23:00,
2013-08-26 18:28:00,81.3,46.0,30.16,NNE,22,0.0,4.0,29,0.00,,,0.00,meteohub,2013-08-26 22:28:00,
2013-08-26 18:33:00,79.9,46.6,30.16,NNE,22,0.0,4.0,31,0.00,,,0.00,meteohub,2013-08-26 22:33:00,
2013-08-26 18:38:00,79.3,46.9,30.16,NNE,22,0.0,3.0,32,0.00,,,0.00,meteohub,2013-08-26 22:38:00,
2013-08-26 18:43:00,78.8,48.9,30.13,NNE,22,0.0,0.0,35,0.00,,,0.00,meteohub,2013-08-26 22:43:00,
2013-08-26 18:48:00,78.1,49.6,30.13,NNE,22,0.0,0.0,37,0.00,,,0.00,meteohub,2013-08-26 22:48:00,
2013-08-26 18:53:00,77.7,50.0,30.13,NNE,22,0.0,0.0,38,0.00,,,0.00,meteohub,2013-08-26 22:53:00,
2013-08-26 18:58:00,77.0,50.2,30.13,NNE,22,0.0,0.0,39,0.00,,,0.00,meteohub,2013-08-26 22:58:00,
2013-08-26 19:03:00,76.3,51.4,30.13,NNE,22,0.0,0.0,42,0.00,,,0.00,meteohub,2013-08-26 23:03:00,
2013-08-26 19:08:00,75.7,51.6,30.13,NNE,22,0.0,0.0,43,0.00,,,0.00,meteohub,2013-08-26 23:08:00,
2013-08-26 19:13:00,75.2,51.8,30.13,NNE,22,0.0,0.0,44,0.00,,,0.00,meteohub,2013-08-26 23:13:00,
2013-08-26 19:18:00,74.7,52.5,30.13,NNE,22,0.0,0.0,46,0.00,,,0.00,meteohub,2013-08-26 23:18:00,
2013-08-26 19:23:00,74.3,53.4,30.13,NNE,22,0.0,0.0,48,0.00,,,0.00,meteohub,2013-08-26 23:23:00,
2013-08-26 19:28:00,73.8,54.0,30.13,NNE,22,0.0,0.0,50,0.00,,,0.00,meteohub,2013-08-26 23:28:00,
2013-08-26 19:33:00,73.2,54.0,30.13,NNE,22,0.0,0.0,51,0.00,,,0.00,meteohub,2013-08-26 23:33:00,
2013-08-26 19:38:00,73.0,54.9,30.13,NNE,22,0.0,0.0,53,0.00,,,0.00,meteohub,2013-08-26 23:38:00,
2013-08-26 19:43:00,72.5,55.4,30.13,NNE,22,0.0,0.0,55,0.00,,,0.00,meteohub,2013-08-26 23:43:00,
2013-08-26 19:48:00,72.1,54.5,30.13,NNE,22,0.0,0.0,54,0.00,,,0.00,meteohub,2013-08-26 23:48:00,
2013-08-26 19:53:00,71.8,54.3,30.13,NNE,22,0.0,0.0,54,0.00,,,0.00,meteohub,2013-08-26 23:53:00,
2013-08-26 19:58:00,71.2,53.8,30.13,NNE,22,0.0,0.0,54,0.00,,,0.00,meteohub,2013-08-26 23:58:00,
2013-08-26 20:03:00,70.9,53.4,30.13,NNE,22,0.0,0.0,54,0.00,,,0.00,meteohub,2013-08-27 00:03:00,
2013-08-26 20:08:00,70.5,54.1,30.13,NNE,22,0.0,0.0,56,0.00,,,0.00,meteohub,2013-08-27 00:08:00,
2013-08-26 20:13:00,70.0,53.6,30.13,NNE,22,0.0,0.0,56,0.00,,,0.00,meteohub,2013-08-27 00:13:00,
2013-08-26 20:18:00,69.6,53.2,30.13,NNE,22,0.0,0.0,56,0.00,,,0.00,meteohub,2013-08-27 00:18:00,
2013-08-26 20:23:00,69.3,54.3,30.13,NNE,22,0.0,0.0,59,0.00,,,0.00,meteohub,2013-08-27 00:23:00,
2013-08-26 20:28:00,68.9,54.0,30.13,NNE,22,0.0,0.0,59,0.00,,,0.00,meteohub,2013-08-27 00:28:00,
2013-08-26 20:33:00,68.5,53.6,30.13,NNE,22,0.0,0.0,59,0.00,,,0.00,meteohub,2013-08-27 00:33:00,
2013-08-26 20:38:00,68.2,53.8,30.13,NNE,22,0.0,0.0,60,0.00,,,0.00,meteohub,2013-08-27 00:38:00,
2013-08-26 20:43:00,67.8,54.7,30.13,NNE,22,0.0,0.0,63,0.00,,,0.00,meteohub,2013-08-27 00:43:00,
2013-08-26 20:48:00,67.6,55.0,30.13,NNE,22,0.0,0.0,64,0.00,,,0.00,meteohub,2013-08-27 00:48:00,
2013-08-26 20:53:00,67.8,55.2,30.13,NNW,338,0.0,0.0,64,0.00,,,0.00,meteohub,2013-08-27 00:53:00,
2013-08-26 20:58:00,67.5,54.5,30.13,NNW,338,0.0,0.0,63,0.00,,,0.00,meteohub,2013-08-27 00:58:00,
2013-08-26 21:03:00,67.3,54.3,30.13,NNW,338,0.0,0.0,63,0.00,,,0.00,meteohub,2013-08-27 01:03:00,
2013-08-26 21:08:00,67.1,54.5,30.13,NNW,338,0.0,0.0,64,0.00,,,0.00,meteohub,2013-08-27 01:08:00,
2013-08-26 21:13:00,66.9,54.9,30.13,NNW,338,0.0,0.0,65,0.00,,,0.00,meteohub,2013-08-27 01:13:00,
2013-08-26 21:18:00,66.7,55.0,30.13,NNE,22,0.0,0.0,66,0.00,,,0.00,meteohub,2013-08-27 01:18:00,
2013-08-26 21:23:00,66.6,55.2,30.13,NNE,22,0.0,0.0,67,0.00,,,0.00,meteohub,2013-08-27 01:23:00,
2013-08-26 21:28:00,66.4,55.0,30.13,NNE,22,0.0,0.0,67,0.00,,,0.00,meteohub,2013-08-27 01:28:00,
2013-08-26 21:33:00,66.0,55.2,30.13,NNE,22,0.0,0.0,68,0.00,,,0.00,meteohub,2013-08-27 01:33:00,
2013-08-26 21:38:00,65.8,55.4,30.13,NNE,22,0.0,0.0,69,0.00,,,0.00,meteohub,2013-08-27 01:38:00,
2013-08-26 21:43:00,65.5,55.4,30.13,NNE,22,0.0,0.0,70,0.00,,,0.00,meteohub,2013-08-27 01:43:00,
2013-08-26 21:48:00,65.3,55.6,30.13,NNE,22,0.0,0.0,71,0.00,,,0.00,meteohub,2013-08-27 01:48:00,
2013-08-26 21:53:00,64.9,55.4,30.13,NNE,22,0.0,0.0,71,0.00,,,0.00,meteohub,2013-08-27 01:53:00,
2013-08-26 21:58:00,64.9,55.8,30.13,NNE,22,0.0,0.0,72,0.00,,,0.00,meteohub,2013-08-27 01:58:00,
2013-08-26 22:03:00,64.8,55.9,30.13,NNE,22,0.0,0.0,73,0.00,,,0.00,meteohub,2013-08-27 02:03:00,
2013-08-26 22:08:00,64.4,56.3,30.13,NNE,22,0.0,0.0,75,0.00,,,0.00,meteohub,2013-08-27 02:08:00,
2013-08-26 22:13:00,64.2,56.8,30.13,NNE,22,0.0,0.0,77,0.00,,,0.00,meteohub,2013-08-27 02:13:00,
2013-08-26 22:18:00,64.2,57.2,30.13,NNE,22,0.0,0.0,78,0.00,,,0.00,meteohub,2013-08-27 02:18:00,
2013-08-26 22:23:00,63.9,57.2,30.13,NNE,22,0.0,0.0,79,0.00,,,0.00,meteohub,2013-08-27 02:23:00,
2013-08-26 22:28:00,63.9,57.6,30.13,NNE,22,0.0,0.0,80,0.00,,,0.00,meteohub,2013-08-27 02:28:00,
2013-08-26 22:33:00,64.0,58.1,30.13,NNW,338,0.0,0.0,81,0.00,,,0.00,meteohub,2013-08-27 02:33:00,
2013-08-26 22:38:00,63.9,58.3,30.13,NNW,338,0.0,0.0,82,0.00,,,0.00,meteohub,2013-08-27 02:38:00,
2013-08-26 22:43:00,63.9,58.6,30.13,NNW,338,0.0,0.0,83,0.00,,,0.00,meteohub,2013-08-27 02:43:00,
2013-08-26 22:48:00,63.7,58.5,30.13,NNW,338,0.0,0.0,83,0.00,,,0.00,meteohub,2013-08-27 02:48:00,
2013-08-26 22:53:00,63.7,58.8,30.13,NNW,338,0.0,0.0,84,0.00,,,0.00,meteohub,2013-08-27 02:53:00,
2013-08-26 23:03:00,63.5,58.8,30.13,NNW,338,0.0,0.0,85,0.00,,,0.00,meteohub,2013-08-27 03:03:00,
2013-08-26 23:08:00,63.5,59.2,30.13,NNW,338,0.0,0.0,86,0.00,,,0.00,meteohub,2013-08-27 03:08:00,
2013-08-26 23:13:00,63.3,59.4,30.13,NNW,338,0.0,0.0,87,0.00,,,0.00,meteohub,2013-08-27 03:13:00,
2013-08-26 23:18:00,63.3,59.7,30.13,NNW,338,0.0,0.0,88,0.00,,,0.00,meteohub,2013-08-27 03:18:00,
2013-08-26 23:23:00,63.3,59.7,30.13,NNW,338,0.0,0.0,88,0.00,,,0.00,meteohub,2013-08-27 03:23:00,
2013-08-26 23:28:00,63.3,60.1,30.13,NNW,338,0.0,0.0,89,0.00,,,0.00,meteohub,2013-08-27 03:28:00,
2013-08-26 23:33:00,63.1,59.9,30.13,NNW,338,0.0,0.0,89,0.00,,,0.00,meteohub,2013-08-27 03:33:00,
2013-08-26 23:38:00,63.1,60.1,30.13,NNW,338,0.0,0.0,90,0.00,,,0.00,meteohub,2013-08-27 03:38:00,
2013-08-26 23:43:00,63.1,60.1,30.13,NNW,338,0.0,0.0,90,0.00,,,0.00,meteohub,2013-08-27 03:43:00,
2013-08-26 23:48:00,63.0,59.9,30.13,NNW,338,0.0,0.0,90,0.00,,,0.00,meteohub,2013-08-27 03:48:00,
2013-08-26 23:53:00,63.0,60.3,30.13,NNW,338,0.0,0.0,91,0.00,,,0.00,meteohub,2013-08-27 03:53:00,
2013-08-26 23:58:00,63.0,60.3,30.13,NNW,338,0.0,0.0,91,0.00,,,0.00,meteohub,2013-08-27 03:58:00,